Terminal Aerodrome Forecast
Issued by NWS Louisville, KY

Home | Current Version | Previous Version | Text Only | Print | Product List | Glossary On
Versions: 1 2 3 4 5 6 7 8 9 10 11 12 13 14 15 16 17
000
FTUS43 KLMK 270900 AAA
TAFSDF
TAF AMD
KSDF 270950Z 2710/2812 34004KT 6SM -FZDZSN BR OVC012
     FM271300 01005KT P6SM OVC024
     FM271700 35007KT P6SM BKN035
     FM272200 01004KT P6SM SKC=

USA.gov is the U.S. government's official web portal to all federal, state and local government web resources and services.